Upstream stations:
Downstream station:
SHEF ID: CDNT2 Canadian Rv nr Canadian, TX
STATION TYPE:
Regulating: Stage = 8.00, Flow = 5231
PRECIP STAGE RIV-FLOW BAT-LOAD
in ft cfs volt
Ccp-Rev Ccp-Rev Ccp-Rev Ccp-Rev
(US/Central)
03/20 00:00 ---- 2.39 195 12.33
03/20 01:00 ---- 2.39 195 12.33
03/20 02:00 ---- 2.38 194 12.25
03/20 03:00 ---- 2.37 192 12.25
03/20 04:00 ---- 2.35 190 12.25
03/20 05:00 ---- 2.37 192 12.17
03/20 06:00 ---- 2.35 190 12.17
03/20 07:00 ---- 2.30 184 12.17
03/20 08:00 ---- 2.30 184 12.17
03/20 09:00 ---- 2.29 183 12.17
03/20 10:00 ---- 2.30 184 12.25
03/20 11:00 ---- 2.28 182 12.41
03/20 12:00 ---- 2.29 183 12.41
03/20 13:00 ---- 2.24 177 12.41
03/20 14:00 ---- 2.24 177 12.57
03/20 15:00 ---- 2.25 178 12.73
03/20 16:00 ---- 2.27 181 12.73
03/20 17:00 ---- 2.22 175 12.65
03/20 18:00 ---- 2.24 177 12.57
03/20 19:00 ---- 2.21 173 12.49
03/20 20:00 ---- 2.21 173 12.41
03/20 21:00 ---- 2.22 175 12.41
03/20 22:00 ---- 2.21 173 12.41
03/20 23:00 ---- ---- ---- ----